sensor_id;sensor_type;location;lat;lon;timestamp;P1;P2;P0
44933;PMS3003;30667;43.614;1.442;2024-02-21T00:01:44;45.50;40.75;28.00
44933;PMS3003;30667;43.614;1.442;2024-02-21T00:04:09;50.75;40.75;28.00
44933;PMS3003;30667;43.614;1.442;2024-02-21T00:06:34;44.50;40.50;28.25
44933;PMS3003;30667;43.614;1.442;2024-02-21T00:09:00;49.25;41.75;28.00
44933;PMS3003;30667;43.614;1.442;2024-02-21T00:11:25;54.67;44.33;30.00
44933;PMS3003;30667;43.614;1.442;2024-02-21T00:13:50;53.33;44.33;30.00
44933;PMS3003;30667;43.614;1.442;2024-02-21T00:16:16;54.75;43.00;30.00
44933;PMS3003;30667;43.614;1.442;2024-02-21T00:18:45;48.60;43.00;29.40
44933;PMS3003;30667;43.614;1.442;2024-02-21T00:21:10;50.25;43.00;30.50
44933;PMS3003;30667;43.614;1.442;2024-02-21T00:23:40;58.75;47.00;31.00
44933;PMS3003;30667;43.614;1.442;2024-02-21T00:26:05;51.33;44.00;29.33
44933;PMS3003;30667;43.614;1.442;2024-02-21T00:28:31;54.67;47.00;32.00
44933;PMS3003;30667;43.614;1.442;2024-02-21T00:30:56;54.00;44.67;32.00
44933;PMS3003;30667;43.614;1.442;2024-02-21T00:33:22;59.33;47.33;32.00
44933;PMS3003;30667;43.614;1.442;2024-02-21T00:35:47;58.33;47.67;32.00
44933;PMS3003;30667;43.614;1.442;2024-02-21T00:38:12;60.33;48.00;31.00
44933;PMS3003;30667;43.614;1.442;2024-02-21T00:40:38;57.00;48.67;31.67
44933;PMS3003;30667;43.614;1.442;2024-02-21T00:43:03;59.33;48.33;33.00
44933;PMS3003;30667;43.614;1.442;2024-02-21T00:45:28;63.33;49.00;32.67
44933;PMS3003;30667;43.614;1.442;2024-02-21T00:47:54;59.33;48.00;33.33
44933;PMS3003;30667;43.614;1.442;2024-02-21T00:50:19;59.00;50.00;32.00
44933;PMS3003;30667;43.614;1.442;2024-02-21T00:52:45;59.00;48.33;31.33
44933;PMS3003;30667;43.614;1.442;2024-02-21T00:55:10;57.67;47.00;31.00
44933;PMS3003;30667;43.614;1.442;2024-02-21T00:57:36;53.33;44.67;30.00
44933;PMS3003;30667;43.614;1.442;2024-02-21T01:00:02;56.67;46.00;32.00
44933;PMS3003;30667;43.614;1.442;2024-02-21T01:02:30;54.25;46.25;31.00
44933;PMS3003;30667;43.614;1.442;2024-02-21T01:04:59;56.00;46.50;31.00
44933;PMS3003;30667;43.614;1.442;2024-02-21T01:07:25;53.33;47.67;32.00
44933;PMS3003;30667;43.614;1.442;2024-02-21T01:09:50;59.67;47.33;31.33
44933;PMS3003;30667;43.614;1.442;2024-02-21T01:12:16;57.00;47.00;31.67
44933;PMS3003;30667;43.614;1.442;2024-02-21T01:14:42;56.50;46.75;30.75
44933;PMS3003;30667;43.614;1.442;2024-02-21T01:17:07;46.33;42.67;28.33
44933;PMS3003;30667;43.614;1.442;2024-02-21T01:19:32;48.33;43.33;28.33
44933;PMS3003;30667;43.614;1.442;2024-02-21T01:21:58;52.75;43.50;27.00
44933;PMS3003;30667;43.614;1.442;2024-02-21T01:24:23;52.00;44.33;29.00
44933;PMS3003;30667;43.614;1.442;2024-02-21T01:26:49;47.75;41.75;28.75
44933;PMS3003;30667;43.614;1.442;2024-02-21T01:29:14;53.67;45.00;29.00
44933;PMS3003;30667;43.614;1.442;2024-02-21T01:31:40;48.50;43.00;28.25
44933;PMS3003;30667;43.614;1.442;2024-02-21T01:34:05;46.75;40.50;28.25
44933;PMS3003;30667;43.614;1.442;2024-02-21T01:36:31;50.50;43.50;29.00
44933;PMS3003;30667;43.614;1.442;2024-02-21T01:38:56;52.00;44.00;29.00
44933;PMS3003;30667;43.614;1.442;2024-02-21T01:41:21;48.50;42.25;28.00
44933;PMS3003;30667;43.614;1.442;2024-02-21T01:43:47;46.00;39.50;27.00
44933;PMS3003;30667;43.614;1.442;2024-02-21T01:46:12;43.75;40.00;28.50
44933;PMS3003;30667;43.614;1.442;2024-02-21T01:48:37;48.50;40.00;26.50
44933;PMS3003;30667;43.614;1.442;2024-02-21T01:51:03;40.50;35.25;23.75
44933;PMS3003;30667;43.614;1.442;2024-02-21T01:53:30;35.60;35.20;23.80
44933;PMS3003;30667;43.614;1.442;2024-02-21T01:55:59;38.40;36.80;25.00
44933;PMS3003;30667;43.614;1.442;2024-02-21T01:58:26;36.40;32.60;23.20
44933;PMS3003;30667;43.614;1.442;2024-02-21T02:00:53;37.00;34.20;23.60
44933;PMS3003;30667;43.614;1.442;2024-02-21T02:03:21;33.00;31.40;21.00
44933;PMS3003;30667;43.614;1.442;2024-02-21T02:05:47;34.25;34.00;23.50
44933;PMS3003;30667;43.614;1.442;2024-02-21T02:08:15;44.60;39.40;25.20
44933;PMS3003;30667;43.614;1.442;2024-02-21T02:10:41;38.60;35.00;21.20
44933;PMS3003;30667;43.614;1.442;2024-02-21T02:13:07;35.25;34.00;24.25
44933;PMS3003;30667;43.614;1.442;2024-02-21T02:15:42;34.40;32.60;21.20
44933;PMS3003;30667;43.614;1.442;2024-02-21T02:18:10;43.80;37.60;23.20
44933;PMS3003;30667;43.614;1.442;2024-02-21T02:20:36;35.40;32.20;23.20
44933;PMS3003;30667;43.614;1.442;2024-02-21T02:23:12;39.20;34.60;21.60
44933;PMS3003;30667;43.614;1.442;2024-02-21T02:25:53;35.40;31.80;21.00
44933;PMS3003;30667;43.614;1.442;2024-02-21T02:28:18;35.75;34.50;24.00
44933;PMS3003;30667;43.614;1.442;2024-02-21T02:30:44;40.80;36.20;23.80
44933;PMS3003;30667;43.614;1.442;2024-02-21T02:33:10;36.00;32.75;21.00
44933;PMS3003;30667;43.614;1.442;2024-02-21T02:35:35;32.00;29.25;19.00
44933;PMS3003;30667;43.614;1.442;2024-02-21T02:38:01;31.25;27.75;20.00
44933;PMS3003;30667;43.614;1.442;2024-02-21T02:40:28;28.60;26.60;16.60
44933;PMS3003;30667;43.614;1.442;2024-02-21T02:42:53;30.75;26.50;16.25
44933;PMS3003;30667;43.614;1.442;2024-02-21T02:45:20;34.80;30.00;18.00
44933;PMS3003;30667;43.614;1.442;2024-02-21T02:47:48;29.40;27.80;20.00
44933;PMS3003;30667;43.614;1.442;2024-02-21T02:50:14;30.75;28.75;19.75
44933;PMS3003;30667;43.614;1.442;2024-02-21T02:52:39;32.00;30.00;20.80
44933;PMS3003;30667;43.614;1.442;2024-02-21T02:55:05;33.50;31.25;20.75
44933;PMS3003;30667;43.614;1.442;2024-02-21T02:57:31;31.60;26.80;18.40
44933;PMS3003;30667;43.614;1.442;2024-02-21T02:59:57;31.20;28.60;20.00
44933;PMS3003;30667;43.614;1.442;2024-02-21T03:02:22;37.75;32.25;20.75
44933;PMS3003;30667;43.614;1.442;2024-02-21T03:04:48;31.00;27.75;18.75
44933;PMS3003;30667;43.614;1.442;2024-02-21T03:07:14;27.75;26.00;15.50
44933;PMS3003;30667;43.614;1.442;2024-02-21T03:09:39;26.20;23.40;16.00
44933;PMS3003;30667;43.614;1.442;2024-02-21T03:12:08;26.25;25.50;16.25
44933;PMS3003;30667;43.614;1.442;2024-02-21T03:14:34;27.80;24.60;16.00
44933;PMS3003;30667;43.614;1.442;2024-02-21T03:16:59;28.00;24.00;15.50
44933;PMS3003;30667;43.614;1.442;2024-02-21T03:19:25;26.75;24.25;16.25
44933;PMS3003;30667;43.614;1.442;2024-02-21T03:21:51;25.25;22.50;14.25
44933;PMS3003;30667;43.614;1.442;2024-02-21T03:24:16;27.20;24.60;16.00
44933;PMS3003;30667;43.614;1.442;2024-02-21T03:26:42;26.00;23.50;16.00
44933;PMS3003;30667;43.614;1.442;2024-02-21T03:29:08;25.50;23.25;16.00
44933;PMS3003;30667;43.614;1.442;2024-02-21T03:31:37;26.80;25.60;15.40
44933;PMS3003;30667;43.614;1.442;2024-02-21T03:34:02;25.20;23.00;16.40
44933;PMS3003;30667;43.614;1.442;2024-02-21T03:36:28;24.25;22.50;15.75
44933;PMS3003;30667;43.614;1.442;2024-02-21T03:38:54;26.00;25.75;17.75
44933;PMS3003;30667;43.614;1.442;2024-02-21T03:41:19;26.00;24.00;16.60
44933;PMS3003;30667;43.614;1.442;2024-02-21T03:43:45;26.50;26.00;17.50
44933;PMS3003;30667;43.614;1.442;2024-02-21T03:46:10;25.50;23.50;16.00
44933;PMS3003;30667;43.614;1.442;2024-02-21T03:48:35;27.00;25.25;16.00
44933;PMS3003;30667;43.614;1.442;2024-02-21T03:51:01;28.20;22.60;13.20
44933;PMS3003;30667;43.614;1.442;2024-02-21T03:53:27;28.75;24.25;15.00
44933;PMS3003;30667;43.614;1.442;2024-02-21T03:55:53;26.25;23.25;15.25
44933;PMS3003;30667;43.614;1.442;2024-02-21T03:58:19;28.40;25.80;18.40
44933;PMS3003;30667;43.614;1.442;2024-02-21T04:00:45;25.00;23.00;14.75
44933;PMS3003;30667;43.614;1.442;2024-02-21T04:03:10;29.00;26.25;16.25
44933;PMS3003;30667;43.614;1.442;2024-02-21T04:05:35;29.25;25.00;16.00
44933;PMS3003;30667;43.614;1.442;2024-02-21T04:08:03;25.75;23.75;15.00
44933;PMS3003;30667;43.614;1.442;2024-02-21T04:10:29;24.80;23.20;15.80
44933;PMS3003;30667;43.614;1.442;2024-02-21T04:12:55;28.00;24.00;13.25
44933;PMS3003;30667;43.614;1.442;2024-02-21T04:15:20;29.50;25.00;15.75
44933;PMS3003;30667;43.614;1.442;2024-02-21T04:17:46;22.75;22.75;15.00
44933;PMS3003;30667;43.614;1.442;2024-02-21T04:20:15;25.25;24.50;15.75
44933;PMS3003;30667;43.614;1.442;2024-02-21T04:22:44;28.60;25.20;15.40
44933;PMS3003;30667;43.614;1.442;2024-02-21T04:25:10;27.40;26.20;15.60
44933;PMS3003;30667;43.614;1.442;2024-02-21T04:27:36;26.40;22.60;16.00
44933;PMS3003;30667;43.614;1.442;2024-02-21T04:30:03;25.00;23.00;15.00
44933;PMS3003;30667;43.614;1.442;2024-02-21T04:32:28;26.60;25.80;17.80
44933;PMS3003;30667;43.614;1.442;2024-02-21T04:34:54;30.00;27.00;18.75
44933;PMS3003;30667;43.614;1.442;2024-02-21T04:37:19;29.50;25.75;16.50
44933;PMS3003;30667;43.614;1.442;2024-02-21T04:39:45;26.20;25.60;16.20
44933;PMS3003;30667;43.614;1.442;2024-02-21T04:42:11;26.75;24.75;15.25
44933;PMS3003;30667;43.614;1.442;2024-02-21T04:44:37;20.50;19.25;13.00
44933;PMS3003;30667;43.614;1.442;2024-02-21T04:47:03;29.40;23.80;15.40
44933;PMS3003;30667;43.614;1.442;2024-02-21T04:49:29;22.00;20.25;13.75
44933;PMS3003;30667;43.614;1.442;2024-02-21T04:51:54;29.00;22.20;14.20
44933;PMS3003;30667;43.614;1.442;2024-02-21T04:54:20;25.00;22.00;15.25
44933;PMS3003;30667;43.614;1.442;2024-02-21T04:56:45;24.75;21.25;14.50
44933;PMS3003;30667;43.614;1.442;2024-02-21T04:59:10;22.00;21.00;12.75
44933;PMS3003;30667;43.614;1.442;2024-02-21T05:01:36;21.00;20.50;13.50
44933;PMS3003;30667;43.614;1.442;2024-02-21T05:04:01;22.50;21.75;14.00
44933;PMS3003;30667;43.614;1.442;2024-02-21T05:06:27;21.00;20.40;14.00
44933;PMS3003;30667;43.614;1.442;2024-02-21T05:08:53;24.50;23.00;15.75
44933;PMS3003;30667;43.614;1.442;2024-02-21T05:11:20;25.40;22.00;15.00
44933;PMS3003;30667;43.614;1.442;2024-02-21T05:13:46;23.00;19.60;13.80
44933;PMS3003;30667;43.614;1.442;2024-02-21T05:16:11;22.25;22.00;13.75
44933;PMS3003;30667;43.614;1.442;2024-02-21T05:18:37;25.50;21.25;14.75
44933;PMS3003;30667;43.614;1.442;2024-02-21T05:21:02;25.25;23.75;15.00
44933;PMS3003;30667;43.614;1.442;2024-02-21T05:23:27;24.50;21.50;12.00
44933;PMS3003;30667;43.614;1.442;2024-02-21T05:25:53;24.25;23.25;14.00
44933;PMS3003;30667;43.614;1.442;2024-02-21T05:28:18;22.25;21.00;14.00
44933;PMS3003;30667;43.614;1.442;2024-02-21T05:30:44;24.50;22.25;15.00
44933;PMS3003;30667;43.614;1.442;2024-02-21T05:33:09;25.00;21.00;14.00
44933;PMS3003;30667;43.614;1.442;2024-02-21T05:35:34;25.50;23.50;15.25
44933;PMS3003;30667;43.614;1.442;2024-02-21T05:38:01;23.60;22.00;13.20
44933;PMS3003;30667;43.614;1.442;2024-02-21T05:40:30;24.60;21.40;15.00
44933;PMS3003;30667;43.614;1.442;2024-02-21T05:42:55;28.50;23.50;14.00
44933;PMS3003;30667;43.614;1.442;2024-02-21T05:45:21;22.00;21.00;12.00
44933;PMS3003;30667;43.614;1.442;2024-02-21T05:47:46;26.00;23.75;14.75
44933;PMS3003;30667;43.614;1.442;2024-02-21T05:50:15;24.60;24.00;14.40
44933;PMS3003;30667;43.614;1.442;2024-02-21T05:52:40;22.00;21.00;14.50
44933;PMS3003;30667;43.614;1.442;2024-02-21T05:55:06;24.25;21.50;14.75
44933;PMS3003;30667;43.614;1.442;2024-02-21T05:57:32;22.80;20.80;14.40
44933;PMS3003;30667;43.614;1.442;2024-02-21T05:59:57;22.75;21.00;14.75
44933;PMS3003;30667;43.614;1.442;2024-02-21T06:02:22;22.00;20.75;14.50
44933;PMS3003;30667;43.614;1.442;2024-02-21T06:04:48;28.00;21.50;14.25
44933;PMS3003;30667;43.614;1.442;2024-02-21T06:07:13;22.50;22.00;15.00
44933;PMS3003;30667;43.614;1.442;2024-02-21T06:09:38;23.00;22.25;16.00
44933;PMS3003;30667;43.614;1.442;2024-02-21T06:12:04;25.00;23.00;15.00
44933;PMS3003;30667;43.614;1.442;2024-02-21T06:14:29;21.75;21.75;15.00
44933;PMS3003;30667;43.614;1.442;2024-02-21T06:16:55;27.75;23.75;15.00
44933;PMS3003;30667;43.614;1.442;2024-02-21T06:19:20;27.00;24.50;18.00
44933;PMS3003;30667;43.614;1.442;2024-02-21T06:21:45;25.00;23.25;14.00
44933;PMS3003;30667;43.614;1.442;2024-02-21T06:24:11;25.75;25.75;18.00
44933;PMS3003;30667;43.614;1.442;2024-02-21T06:26:37;27.60;26.20;18.80
44933;PMS3003;30667;43.614;1.442;2024-02-21T06:29:03;27.25;26.75;18.00
44933;PMS3003;30667;43.614;1.442;2024-02-21T06:31:28;32.00;29.00;20.75
44933;PMS3003;30667;43.614;1.442;2024-02-21T06:33:54;28.00;26.00;18.75
44933;PMS3003;30667;43.614;1.442;2024-02-21T06:36:19;27.25;25.50;16.75
44933;PMS3003;30667;43.614;1.442;2024-02-21T06:38:44;27.25;25.50;16.50
44933;PMS3003;30667;43.614;1.442;2024-02-21T06:41:16;28.25;26.00;16.50
44933;PMS3003;30667;43.614;1.442;2024-02-21T06:43:43;32.60;27.60;17.80
44933;PMS3003;30667;43.614;1.442;2024-02-21T06:46:09;28.25;26.00;17.75
44933;PMS3003;30667;43.614;1.442;2024-02-21T06:48:34;30.75;28.25;19.00
44933;PMS3003;30667;43.614;1.442;2024-02-21T06:50:59;33.00;27.00;18.00
44933;PMS3003;30667;43.614;1.442;2024-02-21T06:53:24;27.75;25.50;16.50
44933;PMS3003;30667;43.614;1.442;2024-02-21T06:55:50;25.25;24.00;15.50
44933;PMS3003;30667;43.614;1.442;2024-02-21T06:58:15;26.75;25.25;17.50
44933;PMS3003;30667;43.614;1.442;2024-02-21T07:00:42;30.60;26.00;16.20
44933;PMS3003;30667;43.614;1.442;2024-02-21T07:03:07;26.75;25.00;17.00
44933;PMS3003;30667;43.614;1.442;2024-02-21T07:05:33;23.00;21.50;14.50
44933;PMS3003;30667;43.614;1.442;2024-02-21T07:07:58;33.25;29.25;18.00
44933;PMS3003;30667;43.614;1.442;2024-02-21T07:10:23;30.00;27.25;18.00
44933;PMS3003;30667;43.614;1.442;2024-02-21T07:12:49;26.00;23.75;15.75
44933;PMS3003;30667;43.614;1.442;2024-02-21T07:15:17;27.20;25.00;15.20
44933;PMS3003;30667;43.614;1.442;2024-02-21T07:17:42;28.50;19.75;13.00
44933;PMS3003;30667;43.614;1.442;2024-02-21T07:20:08;26.00;23.50;15.00
44933;PMS3003;30667;43.614;1.442;2024-02-21T07:22:33;23.00;22.20;14.80
44933;PMS3003;30667;43.614;1.442;2024-02-21T07:24:59;24.00;23.50;16.00
44933;PMS3003;30667;43.614;1.442;2024-02-21T07:27:24;25.00;23.25;15.75
44933;PMS3003;30667;43.614;1.442;2024-02-21T07:29:53;27.40;26.40;16.80
44933;PMS3003;30667;43.614;1.442;2024-02-21T07:32:18;28.80;27.00;16.60
44933;PMS3003;30667;43.614;1.442;2024-02-21T07:34:44;26.00;23.00;15.50
44933;PMS3003;30667;43.614;1.442;2024-02-21T07:37:09;27.75;23.00;15.00
44933;PMS3003;30667;43.614;1.442;2024-02-21T07:39:38;22.75;19.75;14.25
44933;PMS3003;30667;43.614;1.442;2024-02-21T07:42:03;19.40;19.20;12.40
44933;PMS3003;30667;43.614;1.442;2024-02-21T07:44:29;21.25;19.75;12.00
44933;PMS3003;30667;43.614;1.442;2024-02-21T07:46:54;26.25;22.00;12.00
44933;PMS3003;30667;43.614;1.442;2024-02-21T07:49:19;19.25;17.00;11.25
44933;PMS3003;30667;43.614;1.442;2024-02-21T07:51:45;19.50;19.00;12.00
44933;PMS3003;30667;43.614;1.442;2024-02-21T07:54:10;19.25;18.75;11.25
44933;PMS3003;30667;43.614;1.442;2024-02-21T07:56:35;22.50;20.25;11.25
44933;PMS3003;30667;43.614;1.442;2024-02-21T07:59:01;19.25;19.25;12.00
44933;PMS3003;30667;43.614;1.442;2024-02-21T08:01:26;25.50;20.00;13.00
44933;PMS3003;30667;43.614;1.442;2024-02-21T08:03:52;22.00;19.00;11.00
44933;PMS3003;30667;43.614;1.442;2024-02-21T08:06:17;20.00;16.00;11.00
44933;PMS3003;30667;43.614;1.442;2024-02-21T08:08:42;26.00;21.00;11.50
44933;PMS3003;30667;43.614;1.442;2024-02-21T08:11:08;19.75;17.00;11.25
44933;PMS3003;30667;43.614;1.442;2024-02-21T08:13:33;25.50;22.50;13.25
44933;PMS3003;30667;43.614;1.442;2024-02-21T08:15:58;22.00;19.00;11.00
44933;PMS3003;30667;43.614;1.442;2024-02-21T08:18:24;21.00;18.00;11.50
44933;PMS3003;30667;43.614;1.442;2024-02-21T08:20:49;19.00;18.00;12.00
44933;PMS3003;30667;43.614;1.442;2024-02-21T08:23:18;21.00;19.50;11.25
44933;PMS3003;30667;43.614;1.442;2024-02-21T08:25:44;17.80;15.80;9.40
44933;PMS3003;30667;43.614;1.442;2024-02-21T08:28:10;19.80;19.20;10.60
44933;PMS3003;30667;43.614;1.442;2024-02-21T08:30:36;19.50;18.00;9.00
44933;PMS3003;30667;43.614;1.442;2024-02-21T08:33:01;23.50;20.25;10.75
44933;PMS3003;30667;43.614;1.442;2024-02-21T08:35:26;20.50;19.75;12.00
44933;PMS3003;30667;43.614;1.442;2024-02-21T08:37:52;21.25;18.50;11.75
44933;PMS3003;30667;43.614;1.442;2024-02-21T08:40:17;19.75;17.00;11.50
44933;PMS3003;30667;43.614;1.442;2024-02-21T08:42:45;18.20;16.20;10.60
44933;PMS3003;30667;43.614;1.442;2024-02-21T08:45:11;20.75;18.00;10.25
44933;PMS3003;30667;43.614;1.442;2024-02-21T08:47:39;20.00;17.00;10.00
44933;PMS3003;30667;43.614;1.442;2024-02-21T08:50:05;24.80;17.40;9.80
44933;PMS3003;30667;43.614;1.442;2024-02-21T08:52:31;18.80;17.00;8.80
44933;PMS3003;30667;43.614;1.442;2024-02-21T08:54:56;16.80;15.00;8.00
44933;PMS3003;30667;43.614;1.442;2024-02-21T08:57:22;15.75;15.50;9.25
44933;PMS3003;30667;43.614;1.442;2024-02-21T08:59:47;17.75;17.00;10.00
44933;PMS3003;30667;43.614;1.442;2024-02-21T09:02:13;19.00;16.75;9.75
44933;PMS3003;30667;43.614;1.442;2024-02-21T09:04:41;19.40;18.00;9.00
44933;PMS3003;30667;43.614;1.442;2024-02-21T09:07:06;19.25;16.00;8.50
44933;PMS3003;30667;43.614;1.442;2024-02-21T09:09:31;17.75;16.25;10.75
44933;PMS3003;30667;43.614;1.442;2024-02-21T09:11:58;22.00;16.80;10.00
44933;PMS3003;30667;43.614;1.442;2024-02-21T09:14:30;19.00;17.20;10.00
44933;PMS3003;30667;43.614;1.442;2024-02-21T09:16:56;20.50;18.75;10.25
44933;PMS3003;30667;43.614;1.442;2024-02-21T09:19:21;19.75;19.00;12.00
44933;PMS3003;30667;43.614;1.442;2024-02-21T09:21:46;44.50;38.25;28.00
44933;PMS3003;30667;43.614;1.442;2024-02-21T09:24:12;23.25;23.00;15.25
44933;PMS3003;30667;43.614;1.442;2024-02-21T09:26:39;27.00;20.25;13.00
44933;PMS3003;30667;43.614;1.442;2024-02-21T09:29:04;21.40;20.20;13.80
44933;PMS3003;30667;43.614;1.442;2024-02-21T09:31:29;22.75;21.25;14.25
44933;PMS3003;30667;43.614;1.442;2024-02-21T09:33:55;22.75;21.00;12.75
44933;PMS3003;30667;43.614;1.442;2024-02-21T09:36:20;20.75;20.75;13.00
44933;PMS3003;30667;43.614;1.442;2024-02-21T09:38:46;21.20;21.00;13.80
44933;PMS3003;30667;43.614;1.442;2024-02-21T09:41:15;21.50;21.50;13.25
44933;PMS3003;30667;43.614;1.442;2024-02-21T09:43:44;22.40;20.60;13.60
44933;PMS3003;30667;43.614;1.442;2024-02-21T09:46:16;24.80;23.20;14.20
44933;PMS3003;30667;43.614;1.442;2024-02-21T09:51:28;24.40;23.40;13.40
44933;PMS3003;30667;43.614;1.442;2024-02-21T09:53:57;20.60;20.00;13.20
44933;PMS3003;30667;43.614;1.442;2024-02-21T09:56:24;21.20;20.60;13.00
44933;PMS3003;30667;43.614;1.442;2024-02-21T09:58:50;21.00;20.00;12.50
44933;PMS3003;30667;43.614;1.442;2024-02-21T10:01:15;17.75;17.25;12.00
44933;PMS3003;30667;43.614;1.442;2024-02-21T10:03:41;16.40;16.00;10.00
44933;PMS3003;30667;43.614;1.442;2024-02-21T10:06:08;17.00;17.00;9.00
44933;PMS3003;30667;43.614;1.442;2024-02-21T10:08:34;18.25;16.25;9.00
44933;PMS3003;30667;43.614;1.442;2024-02-21T10:10:59;14.00;14.00;6.25
44933;PMS3003;30667;43.614;1.442;2024-02-21T10:13:27;15.20;14.80;7.80
44933;PMS3003;30667;43.614;1.442;2024-02-21T10:16:03;12.00;10.00;5.00
44933;PMS3003;30667;43.614;1.442;2024-02-21T10:18:30;9.00;8.20;5.00
44933;PMS3003;30667;43.614;1.442;2024-02-21T10:21:00;9.00;8.50;3.00
44933;PMS3003;30667;43.614;1.442;2024-02-21T10:23:50;9.40;7.80;3.20
44933;PMS3003;30667;43.614;1.442;2024-02-21T10:26:20;6.40;6.00;2.60
44933;PMS3003;30667;43.614;1.442;2024-02-21T10:28:46;7.40;7.20;2.80
44933;PMS3003;30667;43.614;1.442;2024-02-21T10:31:26;7.40;7.00;3.20
44933;PMS3003;30667;43.614;1.442;2024-02-21T10:33:59;9.00;6.60;2.40
44933;PMS3003;30667;43.614;1.442;2024-02-21T10:36:28;7.00;5.80;2.00
44933;PMS3003;30667;43.614;1.442;2024-02-21T10:38:54;6.00;5.20;2.00
44933;PMS3003;30667;43.614;1.442;2024-02-21T10:41:20;6.00;6.00;2.00
44933;PMS3003;30667;43.614;1.442;2024-02-21T10:43:51;7.20;7.00;2.40
44933;PMS3003;30667;43.614;1.442;2024-02-21T10:46:19;6.80;6.80;2.60
44933;PMS3003;30667;43.614;1.442;2024-02-21T10:48:46;7.40;6.20;2.00
44933;PMS3003;30667;43.614;1.442;2024-02-21T10:51:17;8.60;6.20;2.00
44933;PMS3003;30667;43.614;1.442;2024-02-21T10:56:39;5.40;5.00;2.00
44933;PMS3003;30667;43.614;1.442;2024-02-21T10:59:06;5.60;5.00;2.00
44933;PMS3003;30667;43.614;1.442;2024-02-21T11:01:32;5.00;5.00;2.00
44933;PMS3003;30667;43.614;1.442;2024-02-21T11:04:04;8.40;6.00;2.00
44933;PMS3003;30667;43.614;1.442;2024-02-21T11:06:32;9.40;8.00;4.60
44933;PMS3003;30667;43.614;1.442;2024-02-21T11:09:01;10.40;7.60;3.00
44933;PMS3003;30667;43.614;1.442;2024-02-21T11:11:33;6.20;6.00;3.00
44933;PMS3003;30667;43.614;1.442;2024-02-21T11:14:06;6.60;6.00;2.00
44933;PMS3003;30667;43.614;1.442;2024-02-21T11:16:36;5.00;5.00;2.00
44933;PMS3003;30667;43.614;1.442;2024-02-21T11:19:07;6.80;6.80;3.00
44933;PMS3003;30667;43.614;1.442;2024-02-21T11:21:35;3.40;3.40;1.60
44933;PMS3003;30667;43.614;1.442;2024-02-21T11:24:01;4.20;3.00;1.00
44933;PMS3003;30667;43.614;1.442;2024-02-21T11:26:28;6.00;5.20;2.00
44933;PMS3003;30667;43.614;1.442;2024-02-21T11:28:59;6.80;6.80;2.00
44933;PMS3003;30667;43.614;1.442;2024-02-21T11:31:25;5.40;4.80;2.00
44933;PMS3003;30667;43.614;1.442;2024-02-21T11:33:52;6.60;5.60;1.60
44933;PMS3003;30667;43.614;1.442;2024-02-21T11:36:25;5.00;5.00;1.50
44933;PMS3003;30667;43.614;1.442;2024-02-21T11:38:51;5.80;5.60;2.00
44933;PMS3003;30667;43.614;1.442;2024-02-21T11:41:20;7.00;6.00;2.00
44933;PMS3003;30667;43.614;1.442;2024-02-21T11:43:48;3.40;3.40;1.00
44933;PMS3003;30667;43.614;1.442;2024-02-21T11:46:13;5.00;4.20;1.60
44933;PMS3003;30667;43.614;1.442;2024-02-21T11:48:42;5.00;3.00;1.00
44933;PMS3003;30667;43.614;1.442;2024-02-21T11:51:20;6.00;4.80;2.00
44933;PMS3003;30667;43.614;1.442;2024-02-21T11:53:55;7.80;7.20;3.00
44933;PMS3003;30667;43.614;1.442;2024-02-21T11:56:20;7.25;6.50;2.00
44933;PMS3003;30667;43.614;1.442;2024-02-21T11:58:47;3.00;3.00;1.20
44933;PMS3003;30667;43.614;1.442;2024-02-21T12:01:13;3.25;3.25;1.00
44933;PMS3003;30667;43.614;1.442;2024-02-21T12:03:39;5.00;3.00;1.20
44933;PMS3003;30667;43.614;1.442;2024-02-21T12:06:06;3.40;3.40;1.00
44933;PMS3003;30667;43.614;1.442;2024-02-21T12:08:44;4.60;3.00;1.00
44933;PMS3003;30667;43.614;1.442;2024-02-21T12:13:43;2.60;2.00;0.20
44933;PMS3003;30667;43.614;1.442;2024-02-21T12:16:08;3.75;3.25;1.00
44933;PMS3003;30667;43.614;1.442;2024-02-21T12:18:34;3.00;3.00;1.00
44933;PMS3003;30667;43.614;1.442;2024-02-21T12:20:59;3.00;3.00;1.00
44933;PMS3003;30667;43.614;1.442;2024-02-21T12:23:29;3.60;2.80;1.00
44933;PMS3003;30667;43.614;1.442;2024-02-21T12:25:54;3.00;3.00;0.60
44933;PMS3003;30667;43.614;1.442;2024-02-21T12:28:24;3.00;3.00;1.00
44933;PMS3003;30667;43.614;1.442;2024-02-21T12:30:52;4.00;4.00;2.00
44933;PMS3003;30667;43.614;1.442;2024-02-21T12:33:18;6.00;4.75;1.00
44933;PMS3003;30667;43.614;1.442;2024-02-21T12:35:43;6.00;4.75;1.00
44933;PMS3003;30667;43.614;1.442;2024-02-21T12:38:09;4.00;4.00;1.00
44933;PMS3003;30667;43.614;1.442;2024-02-21T12:40:36;7.60;6.80;2.60
44933;PMS3003;30667;43.614;1.442;2024-02-21T12:43:01;9.00;7.25;2.00
44933;PMS3003;30667;43.614;1.442;2024-02-21T12:45:28;6.00;6.00;2.00
44933;PMS3003;30667;43.614;1.442;2024-02-21T12:47:53;3.25;3.25;1.00
44933;PMS3003;30667;43.614;1.442;2024-02-21T12:50:19;8.50;3.75;1.00
44933;PMS3003;30667;43.614;1.442;2024-02-21T12:52:44;7.00;4.00;1.00
44933;PMS3003;30667;43.614;1.442;2024-02-21T12:55:10;3.00;3.00;1.00
44933;PMS3003;30667;43.614;1.442;2024-02-21T12:57:37;4.00;4.00;2.00
44933;PMS3003;30667;43.614;1.442;2024-02-21T13:00:02;4.00;4.00;1.75
44933;PMS3003;30667;43.614;1.442;2024-02-21T13:02:28;7.00;3.40;1.00
44933;PMS3003;30667;43.614;1.442;2024-02-21T13:04:54;3.00;3.00;1.00
44933;PMS3003;30667;43.614;1.442;2024-02-21T13:07:19;4.00;3.00;0.75
44933;PMS3003;30667;43.614;1.442;2024-02-21T13:09:45;3.00;3.00;1.00
44933;PMS3003;30667;43.614;1.442;2024-02-21T13:12:10;2.00;2.00;0.00
44933;PMS3003;30667;43.614;1.442;2024-02-21T13:14:37;3.80;2.80;0.00
44933;PMS3003;30667;43.614;1.442;2024-02-21T13:17:03;3.00;3.00;1.00
44933;PMS3003;30667;43.614;1.442;2024-02-21T13:19:29;3.00;2.50;0.00
44933;PMS3003;30667;43.614;1.442;2024-02-21T13:21:54;4.75;3.75;1.00
44933;PMS3003;30667;43.614;1.442;2024-02-21T13:24:20;4.00;3.00;1.00
44933;PMS3003;30667;43.614;1.442;2024-02-21T13:26:45;2.00;2.00;1.00
44933;PMS3003;30667;43.614;1.442;2024-02-21T13:29:10;4.00;3.50;1.50
44933;PMS3003;30667;43.614;1.442;2024-02-21T13:31:36;4.00;4.00;0.80
44933;PMS3003;30667;43.614;1.442;2024-02-21T13:34:02;4.00;3.50;1.00
44933;PMS3003;30667;43.614;1.442;2024-02-21T13:36:28;2.60;2.60;1.00
44933;PMS3003;30667;43.614;1.442;2024-02-21T13:38:53;3.00;3.00;1.00
44933;PMS3003;30667;43.614;1.442;2024-02-21T13:41:18;3.00;3.00;1.00
44933;PMS3003;30667;43.614;1.442;2024-02-21T13:43:44;4.00;2.75;0.50
44933;PMS3003;30667;43.614;1.442;2024-02-21T13:46:11;4.00;3.20;1.00
44933;PMS3003;30667;43.614;1.442;2024-02-21T13:48:37;2.25;2.25;1.00
44933;PMS3003;30667;43.614;1.442;2024-02-21T13:51:02;3.00;2.75;0.25
44933;PMS3003;30667;43.614;1.442;2024-02-21T13:53:28;3.75;3.00;1.00
44933;PMS3003;30667;43.614;1.442;2024-02-21T13:55:53;2.60;2.60;0.00
44933;PMS3003;30667;43.614;1.442;2024-02-21T13:58:19;2.00;2.00;0.00
44933;PMS3003;30667;43.614;1.442;2024-02-21T14:00:45;2.50;2.00;0.00